createdAt,value
2019-01-25T00:01:02.931Z,58.59
2019-01-25T00:02:08.017Z,58.64
2019-01-25T00:03:13.389Z,58.63
2019-01-25T00:04:18.699Z,58.64
2019-01-25T00:05:23.724Z,58.66
2019-01-25T00:06:28.762Z,58.72
2019-01-25T00:07:33.808Z,58.85
2019-01-25T00:08:38.901Z,58.90
2019-01-25T00:09:43.846Z,58.84
2019-01-25T00:10:49.493Z,58.92
2019-01-25T00:11:55.086Z,58.93
2019-01-25T00:13:00.095Z,58.86
2019-01-25T00:14:06.008Z,58.83
2019-01-25T00:15:11.720Z,58.81
2019-01-25T00:16:16.862Z,58.77
2019-01-25T00:17:21.963Z,58.72
2019-01-25T00:18:27.038Z,58.63
2019-01-25T00:19:32.049Z,58.55
2019-01-25T00:20:37.340Z,58.51
2019-01-25T00:21:42.698Z,58.46
2019-01-25T00:22:47.732Z,58.43
2019-01-25T00:23:53.197Z,58.40
2019-01-25T00:24:59.335Z,58.36
2019-01-25T00:26:04.809Z,58.36
2019-01-25T00:27:10.073Z,58.36
2019-01-25T00:28:15.025Z,58.35
2019-01-25T00:29:20.331Z,58.32
2019-01-25T00:30:25.523Z,58.25
2019-01-25T00:31:30.621Z,58.22
2019-01-25T00:32:35.632Z,58.31
2019-01-25T00:33:41.095Z,58.37
2019-01-25T00:34:46.084Z,58.51
2019-01-25T00:35:51.124Z,58.68
2019-01-25T00:36:56.221Z,58.83
2019-01-25T00:38:01.168Z,58.95
2019-01-25T00:39:08.132Z,59.07
2019-01-25T00:40:14.216Z,59.15
2019-01-25T00:41:19.231Z,59.28
2019-01-25T00:42:24.253Z,59.31
2019-01-25T00:43:29.671Z,59.30
2019-01-25T00:44:34.720Z,59.27
2019-01-25T00:45:39.703Z,59.19
2019-01-25T00:46:44.740Z,59.14
2019-01-25T00:47:49.924Z,59.08
2019-01-25T00:48:54.860Z,59.02
2019-01-25T00:50:00.254Z,59.01
2019-01-25T00:51:05.385Z,58.91
2019-01-25T00:52:10.521Z,58.85
2019-01-25T00:53:15.763Z,58.79
2019-01-25T00:54:21.048Z,58.77
2019-01-25T00:55:26.394Z,58.76
2019-01-25T00:56:31.397Z,58.78
2019-01-25T00:57:36.721Z,58.80
2019-01-25T00:58:41.711Z,58.85
2019-01-25T00:59:47.091Z,58.84
2019-01-25T01:00:52.418Z,58.84
2019-01-25T01:01:57.552Z,58.87
2019-01-25T01:03:03.779Z,58.93
2019-01-25T01:04:08.909Z,59.05
2019-01-25T01:05:14.723Z,59.13
2019-01-25T01:06:20.934Z,59.20
2019-01-25T01:07:25.954Z,59.15
2019-01-25T01:08:30.966Z,59.21
2019-01-25T01:09:36.952Z,59.29
2019-01-25T01:10:42.067Z,59.35
2019-01-25T01:11:47.030Z,59.37
2019-01-25T01:12:53.072Z,59.39
2019-01-25T01:13:58.060Z,59.33
2019-01-25T01:15:03.283Z,59.31
2019-01-25T01:16:08.565Z,59.30
2019-01-25T01:17:13.625Z,59.32
2019-01-25T01:18:18.693Z,59.33
2019-01-25T01:19:23.712Z,59.33
2019-01-25T01:20:28.803Z,59.41
2019-01-25T01:21:33.730Z,59.46
2019-01-25T01:22:38.812Z,59.46
2019-01-25T01:23:43.821Z,59.47
2019-01-25T01:24:49.246Z,59.44
2019-01-25T01:25:54.317Z,59.55
2019-01-25T01:26:59.256Z,59.62
2019-01-25T01:28:04.326Z,59.65
2019-01-25T01:29:09.338Z,59.58
2019-01-25T01:30:19.744Z,59.52
2019-01-25T01:31:24.756Z,59.48
2019-01-25T01:32:29.766Z,59.36
2019-01-25T01:33:35.136Z,59.31
2019-01-25T01:34:40.066Z,59.29
2019-01-25T01:35:45.402Z,59.29
2019-01-25T01:36:50.434Z,59.29
2019-01-25T01:37:55.791Z,59.32
2019-01-25T01:39:00.834Z,59.30
2019-01-25T01:40:10.581Z,59.23
2019-01-25T01:41:15.578Z,59.19
2019-01-25T01:42:20.645Z,59.18
2019-01-25T01:43:25.723Z,59.22
2019-01-25T01:44:30.687Z,59.18
2019-01-25T01:45:35.620Z,59.17
2019-01-25T01:46:40.856Z,59.17
2019-01-25T01:47:45.951Z,59.18
2019-01-25T01:48:51.001Z,59.14
2019-01-25T01:49:56.023Z,59.14
2019-01-25T01:51:01.393Z,59.08
2019-01-25T01:52:06.683Z,59.03
2019-01-25T01:53:11.675Z,59.00
2019-01-25T01:54:16.874Z,58.99
2019-01-25T01:55:22.263Z,58.99
2019-01-25T01:56:27.531Z,58.97
2019-01-25T01:57:32.831Z,58.93
2019-01-25T01:58:37.840Z,58.97
2019-01-25T01:59:42.767Z,58.99
2019-01-25T02:00:47.784Z,59.00
2019-01-25T02:01:52.691Z,59.01
2019-01-25T02:02:58.042Z,59.02
2019-01-25T02:04:03.076Z,59.03
2019-01-25T02:05:09.577Z,59.02
2019-01-25T02:06:14.683Z,59.05
2019-01-25T02:07:20.017Z,59.07
2019-01-25T02:08:25.021Z,59.05
2019-01-25T02:09:29.946Z,59.05
2019-01-25T02:10:35.038Z,59.06
2019-01-25T02:11:40.117Z,59.06
2019-01-25T02:12:45.229Z,59.05
2019-01-25T02:13:50.462Z,59.07
2019-01-25T02:14:55.828Z,59.08
2019-01-25T02:16:01.221Z,59.06
2019-01-25T02:17:06.370Z,58.97
2019-01-25T02:18:11.689Z,58.96
2019-01-25T02:19:17.074Z,58.96
2019-01-25T02:20:32.384Z,58.99
2019-01-25T02:21:37.719Z,58.96
2019-01-25T02:22:42.688Z,58.95
2019-01-25T02:23:48.162Z,58.94
2019-01-25T02:24:53.159Z,58.92
2019-01-25T02:25:58.659Z,58.93
2019-01-25T02:27:03.689Z,58.96
2019-01-25T02:28:08.826Z,58.95
2019-01-25T02:29:13.823Z,58.95
2019-01-25T02:30:21.493Z,58.97
2019-01-25T02:31:26.489Z,58.98
2019-01-25T02:32:31.434Z,58.98
2019-01-25T02:33:36.799Z,59.00
2019-01-25T02:34:41.799Z,59.01
2019-01-25T02:35:47.152Z,58.98
2019-01-25T02:36:52.541Z,58.97
2019-01-25T02:37:57.820Z,59.03
2019-01-25T02:39:03.152Z,59.11
2019-01-25T02:40:09.679Z,59.15
2019-01-25T02:41:14.689Z,59.20
2019-01-25T02:42:19.707Z,59.28
2019-01-25T02:43:24.632Z,59.39
2019-01-25T02:44:29.567Z,59.49
2019-01-25T02:45:34.751Z,59.55
2019-01-25T02:46:40.040Z,59.62
2019-01-25T02:47:45.409Z,59.67
2019-01-25T02:48:50.426Z,59.73
2019-01-25T02:49:55.387Z,59.72
2019-01-25T02:51:00.363Z,59.77
2019-01-25T02:52:05.602Z,59.72
2019-01-25T02:53:10.532Z,59.81
2019-01-25T02:54:15.472Z,59.91
2019-01-25T02:55:20.690Z,59.98
2019-01-25T02:56:25.699Z,60.04
2019-01-25T02:57:30.693Z,60.08
2019-01-25T02:58:35.674Z,60.06
2019-01-25T02:59:40.871Z,60.10
2019-01-25T03:00:46.180Z,60.09
2019-01-25T03:01:51.135Z,60.10
2019-01-25T03:02:56.729Z,60.12
2019-01-25T03:04:02.101Z,60.13
2019-01-25T03:05:08.352Z,60.14
2019-01-25T03:06:13.709Z,60.12
2019-01-25T03:07:20.017Z,60.11
2019-01-25T03:08:25.104Z,60.12
2019-01-25T03:09:30.405Z,60.12
2019-01-25T03:10:35.817Z,60.11
2019-01-25T03:11:40.912Z,60.17
2019-01-25T03:12:46.111Z,60.25
2019-01-25T03:13:51.087Z,60.32
2019-01-25T03:14:56.443Z,60.42
2019-01-25T03:16:01.481Z,60.56
2019-01-25T03:17:06.525Z,60.73
2019-01-25T03:18:11.624Z,60.80
2019-01-25T03:19:16.585Z,60.82
2019-01-25T03:20:21.869Z,60.81
2019-01-25T03:21:26.771Z,60.78
2019-01-25T03:22:31.783Z,60.73
2019-01-25T03:23:36.991Z,60.74
2019-01-25T03:24:42.055Z,60.83
2019-01-25T03:25:47.066Z,60.98
2019-01-25T03:26:52.714Z,61.14
2019-01-25T03:27:57.795Z,61.30
2019-01-25T03:29:02.832Z,61.47
2019-01-25T03:30:09.619Z,61.61
2019-01-25T03:31:14.854Z,61.67
2019-01-25T03:32:19.872Z,61.71
2019-01-25T03:33:24.843Z,61.71
2019-01-25T03:34:30.108Z,61.72
2019-01-25T03:35:35.130Z,61.76
2019-01-25T03:36:40.623Z,61.77
2019-01-25T03:37:45.708Z,61.77
2019-01-25T03:38:50.673Z,61.76
2019-01-25T03:39:55.955Z,61.78
2019-01-25T03:41:01.227Z,61.82
2019-01-25T03:42:06.311Z,61.87
2019-01-25T03:43:11.606Z,62.00
2019-01-25T03:44:16.715Z,62.08
2019-01-25T03:45:22.208Z,62.18
2019-01-25T03:46:27.153Z,62.28
2019-01-25T03:47:32.336Z,62.38
2019-01-25T03:48:37.447Z,62.45
2019-01-25T03:49:42.561Z,62.53
2019-01-25T03:50:47.645Z,62.57
2019-01-25T03:51:52.622Z,62.58
2019-01-25T03:52:57.790Z,62.53
2019-01-25T03:54:02.813Z,62.56
2019-01-25T03:55:09.991Z,62.54
2019-01-25T03:56:15.047Z,62.47
2019-01-25T03:57:19.963Z,62.45
2019-01-25T03:58:24.926Z,62.32
2019-01-25T03:59:30.239Z,62.32
2019-01-25T04:00:35.277Z,62.27
2019-01-25T04:01:40.223Z,62.23
2019-01-25T04:02:45.414Z,62.25
2019-01-25T04:03:50.421Z,62.27
2019-01-25T04:04:55.654Z,62.30
2019-01-25T04:06:00.927Z,62.37
2019-01-25T04:07:06.144Z,62.39
2019-01-25T04:08:11.696Z,62.32
2019-01-25T04:09:16.787Z,62.27
2019-01-25T04:10:23.516Z,62.31
2019-01-25T04:11:28.522Z,62.37
2019-01-25T04:12:33.606Z,62.37
2019-01-25T04:13:38.620Z,62.37
2019-01-25T04:14:43.679Z,62.33
2019-01-25T04:15:48.695Z,62.30
2019-01-25T04:16:53.699Z,62.27
2019-01-25T04:17:58.762Z,62.22
2019-01-25T04:19:03.856Z,62.16
2019-01-25T04:20:11.058Z,62.21
2019-01-25T04:21:16.075Z,62.24
2019-01-25T04:22:21.162Z,62.21
2019-01-25T04:23:26.556Z,62.20
2019-01-25T04:24:31.482Z,62.17
2019-01-25T04:25:36.848Z,62.19
2019-01-25T04:26:42.115Z,62.17
2019-01-25T04:27:47.406Z,62.24
2019-01-25T04:28:52.347Z,62.35
2019-01-25T04:29:57.339Z,62.45
2019-01-25T04:31:02.403Z,62.55
2019-01-25T04:32:07.399Z,62.62
2019-01-25T04:33:12.422Z,62.76
2019-01-25T04:34:17.646Z,62.86
2019-01-25T04:35:22.610Z,62.94
2019-01-25T04:36:27.677Z,63.00
2019-01-25T04:37:33.292Z,62.98
2019-01-25T04:38:38.856Z,62.97
2019-01-25T04:39:44.156Z,63.04
2019-01-25T04:40:49.335Z,63.07
2019-01-25T04:41:54.272Z,63.05
2019-01-25T04:42:59.356Z,63.05
2019-01-25T04:44:04.679Z,63.02
2019-01-25T04:45:11.496Z,63.00
2019-01-25T04:46:16.651Z,63.00
2019-01-25T04:47:28.021Z,62.99
2019-01-25T04:48:33.036Z,63.07
2019-01-25T04:49:38.718Z,63.12
2019-01-25T04:50:43.813Z,63.15
2019-01-25T04:51:48.876Z,63.17
2019-01-25T04:52:55.429Z,63.29
2019-01-25T04:54:00.473Z,63.38
2019-01-25T04:55:14.761Z,63.41
2019-01-25T04:56:19.753Z,63.43
2019-01-25T04:57:25.093Z,63.41
2019-01-25T04:58:30.381Z,63.41
2019-01-25T04:59:35.626Z,63.41
2019-01-25T05:00:40.841Z,63.37
2019-01-25T05:01:45.947Z,63.28
2019-01-25T05:02:55.745Z,63.33
2019-01-25T05:04:00.775Z,63.39
2019-01-25T05:05:06.507Z,63.42
2019-01-25T05:06:14.566Z,63.45
2019-01-25T05:07:19.504Z,63.43
2019-01-25T05:08:24.553Z,63.39
2019-01-25T05:09:34.230Z,63.35
2019-01-25T05:10:39.755Z,63.38
2019-01-25T05:11:45.784Z,63.41
2019-01-25T05:12:54.164Z,63.43
2019-01-25T05:13:59.379Z,63.53
2019-01-25T05:15:05.249Z,63.56
2019-01-25T05:16:14.775Z,63.56
2019-01-25T05:17:20.040Z,63.62
2019-01-25T05:18:24.985Z,63.63
2019-01-25T05:19:32.725Z,63.63
2019-01-25T05:20:37.733Z,63.61
2019-01-25T05:21:43.118Z,63.58
2019-01-25T05:22:54.098Z,63.68
2019-01-25T05:23:59.026Z,63.76
2019-01-25T05:25:04.340Z,63.79
2019-01-25T05:26:09.591Z,63.90
2019-01-25T05:27:14.872Z,64.04
2019-01-25T05:28:21.005Z,64.13
2019-01-25T05:29:32.424Z,64.23
2019-01-25T05:30:37.442Z,64.35
2019-01-25T05:31:42.779Z,64.47
2019-01-25T05:32:47.804Z,64.54
2019-01-25T05:33:54.773Z,64.66
2019-01-25T05:34:59.722Z,64.73
2019-01-25T05:36:05.844Z,64.89
2019-01-25T05:37:12.339Z,65.01
2019-01-25T05:38:17.278Z,65.11
2019-01-25T05:39:22.208Z,65.21
2019-01-25T05:40:27.187Z,65.33
2019-01-25T05:41:32.222Z,65.40
2019-01-25T05:42:37.145Z,65.46
2019-01-25T05:43:43.299Z,65.53
2019-01-25T05:44:48.737Z,65.57
2019-01-25T05:45:53.761Z,65.64
2019-01-25T05:46:58.860Z,65.72
2019-01-25T05:48:04.109Z,65.73
2019-01-25T05:49:09.091Z,65.71
2019-01-25T05:50:14.637Z,65.71
2019-01-25T05:51:19.636Z,65.75
2019-01-25T05:52:24.754Z,65.79
2019-01-25T05:53:30.194Z,65.83
2019-01-25T05:54:35.235Z,65.85
2019-01-25T05:55:40.251Z,65.88
2019-01-25T05:56:45.324Z,65.98
2019-01-25T05:57:52.376Z,66.06
2019-01-25T05:58:57.470Z,66.12
2019-01-25T06:00:05.860Z,66.21
2019-01-25T06:01:10.981Z,66.30
2019-01-25T06:02:16.120Z,66.44
2019-01-25T06:03:21.534Z,66.56
2019-01-25T06:04:33.092Z,66.66
2019-01-25T06:05:38.688Z,66.77
2019-01-25T06:06:43.730Z,66.87
2019-01-25T06:07:49.095Z,66.90
2019-01-25T06:08:54.056Z,66.93
2019-01-25T06:09:59.006Z,66.92
2019-01-25T06:11:11.305Z,66.92
2019-01-25T06:12:16.419Z,66.95
2019-01-25T06:13:21.427Z,66.98
2019-01-25T06:14:27.785Z,67.08
2019-01-25T06:15:32.809Z,67.12
2019-01-25T06:16:41.346Z,67.15
2019-01-25T06:17:46.715Z,67.16
2019-01-25T06:18:51.758Z,67.17
2019-01-25T06:19:57.224Z,67.21
2019-01-25T06:21:02.453Z,67.27
2019-01-25T06:22:07.459Z,67.35
2019-01-25T06:23:12.541Z,67.38
2019-01-25T06:24:18.150Z,67.44
2019-01-25T06:25:23.234Z,67.56
2019-01-25T06:26:28.649Z,67.59
2019-01-25T06:27:37.666Z,67.62
2019-01-25T06:28:42.782Z,67.65
2019-01-25T06:29:48.030Z,67.70
2019-01-25T06:30:53.338Z,67.76
2019-01-25T06:31:58.329Z,67.76
2019-01-25T06:33:03.281Z,67.77
2019-01-25T06:34:08.657Z,67.85
2019-01-25T06:35:13.671Z,67.85
2019-01-25T06:36:19.133Z,67.93
2019-01-25T06:37:24.128Z,68.05
2019-01-25T06:38:29.268Z,68.14
2019-01-25T06:39:34.352Z,68.19
2019-01-25T06:40:39.538Z,68.20
2019-01-25T06:41:44.618Z,68.24
2019-01-25T06:42:49.765Z,68.24
2019-01-25T06:43:54.707Z,68.29
2019-01-25T06:44:59.640Z,68.30
2019-01-25T06:46:05.342Z,68.30
2019-01-25T06:47:10.367Z,68.28
2019-01-25T06:48:15.486Z,68.24
2019-01-25T06:49:20.592Z,68.16
2019-01-25T06:50:25.566Z,68.21
2019-01-25T06:51:30.936Z,68.16
2019-01-25T06:52:35.971Z,68.13
2019-01-25T06:53:41.977Z,68.19
2019-01-25T06:54:46.904Z,68.23
2019-01-25T06:55:51.989Z,68.26
2019-01-25T06:56:58.379Z,68.27
2019-01-25T06:58:10.751Z,68.26
2019-01-25T06:59:22.173Z,68.23
2019-01-25T07:00:28.119Z,68.21
2019-01-25T07:01:50.949Z,68.12
2019-01-25T07:02:57.739Z,68.21
2019-01-25T07:04:02.768Z,68.24
2019-01-25T07:05:09.121Z,68.30
2019-01-25T07:06:15.933Z,68.38
2019-01-25T07:07:25.992Z,68.49
2019-01-25T07:08:31.353Z,68.55
2019-01-25T07:09:36.761Z,68.59
2019-01-25T07:10:41.790Z,68.60
2019-01-25T07:11:51.491Z,68.56
2019-01-25T07:12:53.644Z,68.53
2019-01-25T07:13:59.745Z,68.50
2019-01-25T07:15:06.240Z,68.51
2019-01-25T07:16:11.980Z,68.54
2019-01-25T07:17:19.827Z,68.57
2019-01-25T07:18:24.768Z,68.62
2019-01-25T07:19:29.747Z,68.62
2019-01-25T07:20:34.864Z,68.57
2019-01-25T07:21:40.231Z,68.55
2019-01-25T07:22:45.359Z,68.58
2019-01-25T07:23:50.418Z,68.58
2019-01-25T07:24:57.257Z,68.53
2019-01-25T07:26:02.223Z,68.55
2019-01-25T07:27:07.245Z,68.53
2019-01-25T07:28:13.016Z,68.50
2019-01-25T07:29:20.023Z,68.40
2019-01-25T07:30:25.137Z,68.38
2019-01-25T07:31:30.328Z,68.33
2019-01-25T07:32:35.373Z,68.41
2019-01-25T07:33:41.028Z,68.37
2019-01-25T07:34:46.479Z,68.30
2019-01-25T07:35:51.516Z,68.39
2019-01-25T07:36:56.485Z,68.45
2019-01-25T07:38:01.816Z,68.47
2019-01-25T07:39:25.042Z,68.54
2019-01-25T07:40:30.973Z,68.58
2019-01-25T07:41:36.107Z,68.58
2019-01-25T07:42:41.209Z,68.55
2019-01-25T07:43:46.466Z,68.45
2019-01-25T07:44:51.685Z,68.54
2019-01-25T07:45:57.403Z,68.60
2019-01-25T07:47:02.531Z,68.64
2019-01-25T07:48:07.623Z,68.64
2019-01-25T07:49:12.775Z,68.71
2019-01-25T07:50:18.192Z,68.68
2019-01-25T07:51:23.292Z,68.64
2019-01-25T07:52:28.422Z,68.60
2019-01-25T07:53:33.507Z,68.60
2019-01-25T07:54:38.561Z,68.57
2019-01-25T07:55:43.751Z,68.53
2019-01-25T07:56:48.700Z,68.63
2019-01-25T07:57:54.421Z,68.72
2019-01-25T07:58:59.372Z,68.71
2019-01-25T08:00:05.336Z,68.66
2019-01-25T08:01:10.515Z,68.61
2019-01-25T08:02:15.588Z,68.66
2019-01-25T08:03:20.597Z,68.66
2019-01-25T08:04:25.797Z,68.73
2019-01-25T08:05:31.283Z,68.69
2019-01-25T08:06:36.521Z,68.62
2019-01-25T08:07:41.547Z,68.57
2019-01-25T08:08:46.897Z,68.56
2019-01-25T08:09:52.151Z,68.56
2019-01-25T08:10:57.468Z,68.55
2019-01-25T08:12:07.343Z,68.48
2019-01-25T08:13:09.314Z,68.34
2019-01-25T08:14:14.810Z,68.27
2019-01-25T08:15:20.380Z,68.17
2019-01-25T08:16:26.881Z,68.22
2019-01-25T08:17:31.921Z,68.25
2019-01-25T08:18:36.982Z,68.24
2019-01-25T08:19:43.267Z,68.14
2019-01-25T08:20:48.978Z,68.19
2019-01-25T08:21:54.013Z,68.17
2019-01-25T08:22:59.021Z,68.12
2019-01-25T08:24:04.166Z,68.04
2019-01-25T08:25:09.849Z,67.90
2019-01-25T08:26:15.629Z,67.84
2019-01-25T08:27:20.959Z,67.92
2019-01-25T08:28:26.169Z,67.96
2019-01-25T08:29:31.221Z,67.85
2019-01-25T08:30:36.788Z,67.87
2019-01-25T08:31:42.216Z,67.91
2019-01-25T08:32:48.268Z,67.84
2019-01-25T08:33:53.442Z,67.90
2019-01-25T08:34:58.515Z,67.94
2019-01-25T08:36:03.713Z,67.96
2019-01-25T08:37:08.700Z,68.00
2019-01-25T08:38:14.017Z,67.97
2019-01-25T08:39:19.070Z,67.96
2019-01-25T08:40:24.388Z,67.94
2019-01-25T08:41:29.937Z,67.90
2019-01-25T08:42:35.122Z,67.81
2019-01-25T08:43:40.480Z,67.72
2019-01-25T08:44:46.172Z,67.64
2019-01-25T08:45:51.361Z,67.66
2019-01-25T08:46:56.430Z,67.61
2019-01-25T08:48:01.527Z,67.59
2019-01-25T08:49:06.732Z,67.55
2019-01-25T08:50:17.258Z,67.47
2019-01-25T08:51:22.372Z,67.46
2019-01-25T08:52:27.774Z,67.41
2019-01-25T08:53:32.742Z,67.39
2019-01-25T08:54:38.106Z,67.38
2019-01-25T08:55:43.205Z,67.34
2019-01-25T08:56:48.315Z,67.28
2019-01-25T08:57:53.340Z,67.22
2019-01-25T08:58:58.933Z,67.26
2019-01-25T09:00:05.602Z,67.26
2019-01-25T09:01:10.928Z,67.21
2019-01-25T09:02:16.312Z,67.14
2019-01-25T09:03:21.742Z,67.09
2019-01-25T09:04:26.719Z,67.01
2019-01-25T09:05:31.854Z,67.02
2019-01-25T09:06:36.964Z,67.07
2019-01-25T09:07:42.073Z,67.08
2019-01-25T09:08:47.425Z,67.05
2019-01-25T09:09:52.421Z,67.01
2019-01-25T09:10:57.930Z,66.99
2019-01-25T09:12:03.188Z,66.97
2019-01-25T09:13:08.399Z,66.96
2019-01-25T09:14:13.765Z,66.85
2019-01-25T09:15:22.566Z,66.80
2019-01-25T09:16:28.120Z,66.79
2019-01-25T09:17:33.287Z,66.70
2019-01-25T09:18:38.573Z,66.68
2019-01-25T09:19:43.638Z,66.70
2019-01-25T09:20:50.321Z,66.64
2019-01-25T09:21:56.471Z,66.68
2019-01-25T09:23:01.609Z,66.65
2019-01-25T09:24:06.741Z,66.63
2019-01-25T09:25:11.857Z,66.53
2019-01-25T09:26:17.254Z,66.50
2019-01-25T09:27:23.845Z,66.51
2019-01-25T09:28:29.285Z,66.64
2019-01-25T09:29:34.268Z,66.66
2019-01-25T09:30:39.401Z,66.63
2019-01-25T09:31:44.351Z,66.64
2019-01-25T09:32:49.433Z,66.66
2019-01-25T09:33:54.780Z,66.61
2019-01-25T09:35:00.249Z,66.65
2019-01-25T09:36:05.581Z,66.75
2019-01-25T09:37:10.599Z,66.87
2019-01-25T09:38:15.785Z,66.94
2019-01-25T09:39:20.836Z,66.89
2019-01-25T09:40:26.853Z,66.91
2019-01-25T09:41:31.847Z,66.90
2019-01-25T09:42:37.168Z,66.85
2019-01-25T09:43:42.181Z,66.80
2019-01-25T09:44:47.396Z,66.78
2019-01-25T09:45:52.770Z,66.65
2019-01-25T09:46:57.796Z,66.62
2019-01-25T09:48:02.721Z,66.59
2019-01-25T09:49:07.811Z,66.60
2019-01-25T09:50:15.224Z,66.57
2019-01-25T09:51:20.267Z,66.46
2019-01-25T09:52:25.377Z,66.42
2019-01-25T09:53:30.461Z,66.41
2019-01-25T09:54:35.424Z,66.47
2019-01-25T09:55:40.551Z,66.58
2019-01-25T09:56:45.537Z,66.60
2019-01-25T09:57:51.737Z,66.62
2019-01-25T09:58:57.769Z,66.61
2019-01-25T10:00:02.936Z,66.59
2019-01-25T10:01:10.094Z,66.62
2019-01-25T10:02:15.419Z,66.57
2019-01-25T10:03:21.056Z,66.51
2019-01-25T10:04:25.991Z,66.46
2019-01-25T10:05:31.101Z,66.41
2019-01-25T10:06:36.685Z,66.40
2019-01-25T10:07:41.775Z,66.33
2019-01-25T10:08:47.231Z,66.36
2019-01-25T10:09:52.166Z,66.32
2019-01-25T10:10:57.410Z,66.37
2019-01-25T10:12:02.368Z,66.40
2019-01-25T10:13:07.400Z,66.39
2019-01-25T10:14:12.433Z,66.36
2019-01-25T10:15:19.684Z,66.37
2019-01-25T10:16:24.605Z,66.33
2019-01-25T10:17:29.965Z,66.36
2019-01-25T10:18:35.099Z,66.34
2019-01-25T10:19:40.473Z,66.33
2019-01-25T10:20:45.558Z,66.30
2019-01-25T10:21:50.619Z,66.29
2019-01-25T10:22:55.996Z,66.27
2019-01-25T10:24:01.849Z,66.31
2019-01-25T10:25:08.176Z,66.29
2019-01-25T10:26:13.257Z,66.26
2019-01-25T10:27:18.233Z,66.28
2019-01-25T10:28:23.892Z,66.27
2019-01-25T10:29:29.225Z,66.27
2019-01-25T10:30:34.568Z,66.26
2019-01-25T10:31:39.985Z,66.19
2019-01-25T10:32:45.344Z,66.15
2019-01-25T10:33:50.444Z,66.10
2019-01-25T10:34:55.558Z,66.13
2019-01-25T10:36:00.678Z,66.15
2019-01-25T10:37:06.029Z,66.18
2019-01-25T10:38:11.129Z,66.21
2019-01-25T10:39:16.722Z,66.17
2019-01-25T10:40:22.119Z,66.07
2019-01-25T10:41:27.073Z,66.13
2019-01-25T10:42:32.083Z,66.26
2019-01-25T10:43:37.388Z,66.30
2019-01-25T10:44:42.610Z,66.27
2019-01-25T10:45:47.600Z,66.22
2019-01-25T10:46:53.037Z,66.29
2019-01-25T10:47:58.269Z,66.37
2019-01-25T10:49:03.428Z,66.35
2019-01-25T10:50:08.579Z,66.37
2019-01-25T10:51:13.597Z,66.38
2019-01-25T10:52:18.570Z,66.46
2019-01-25T10:53:23.594Z,66.49
2019-01-25T10:54:29.028Z,66.54
2019-01-25T10:55:34.554Z,66.60
2019-01-25T10:56:41.917Z,66.63
2019-01-25T10:57:47.146Z,66.66
2019-01-25T10:58:52.082Z,66.62
2019-01-25T10:59:57.435Z,66.52
2019-01-25T11:01:02.751Z,66.49
2019-01-25T11:02:07.799Z,66.42
2019-01-25T11:03:12.789Z,66.36
2019-01-25T11:04:17.822Z,66.35
2019-01-25T11:05:24.205Z,66.40
2019-01-25T11:06:29.459Z,66.48
2019-01-25T11:07:34.836Z,66.55
2019-01-25T11:08:39.771Z,66.75
2019-01-25T11:09:45.024Z,66.85
2019-01-25T11:10:50.067Z,66.88
2019-01-25T11:11:55.077Z,66.80
2019-01-25T11:13:01.133Z,66.80
2019-01-25T11:14:06.623Z,66.78
2019-01-25T11:15:14.666Z,66.75
2019-01-25T11:16:20.003Z,66.81
2019-01-25T11:17:25.337Z,66.93
2019-01-25T11:18:30.363Z,66.94
2019-01-25T11:19:35.401Z,66.85
2019-01-25T11:20:40.433Z,66.92
2019-01-25T11:21:45.590Z,66.91
2019-01-25T11:22:51.179Z,66.94
2019-01-25T11:23:56.261Z,66.90
2019-01-25T11:25:01.272Z,66.98
2019-01-25T11:26:07.255Z,67.04
2019-01-25T11:27:12.328Z,67.12
2019-01-25T11:28:17.361Z,67.12
2019-01-25T11:29:22.322Z,67.15
2019-01-25T11:30:27.391Z,67.24
2019-01-25T11:31:32.741Z,67.36
2019-01-25T11:32:37.665Z,67.46
2019-01-25T11:33:42.799Z,67.57
2019-01-25T11:34:48.112Z,67.61
2019-01-25T11:35:53.068Z,67.53
2019-01-25T11:36:58.363Z,67.47
2019-01-25T11:38:03.960Z,67.43
2019-01-25T11:39:10.868Z,67.32
2019-01-25T11:40:19.462Z,67.23
2019-01-25T11:41:24.447Z,67.24
2019-01-25T11:42:29.459Z,67.21
2019-01-25T11:43:34.476Z,67.21
2019-01-25T11:44:39.488Z,67.15
2019-01-25T11:45:44.984Z,67.01
2019-01-25T11:46:49.928Z,66.83
2019-01-25T11:47:54.984Z,66.73
2019-01-25T11:49:00.025Z,66.67
2019-01-25T11:50:21.985Z,66.49
2019-01-25T11:51:16.865Z,66.53
2019-01-25T11:52:25.075Z,66.62
2019-01-25T11:53:29.055Z,66.62
2019-01-25T11:54:33.982Z,66.62
2019-01-25T11:55:39.177Z,66.63
2019-01-25T11:56:44.752Z,66.70
2019-01-25T11:57:49.731Z,66.73
2019-01-25T11:58:55.715Z,66.74
2019-01-25T12:00:00.660Z,66.73
2019-01-25T12:01:06.802Z,66.58
2019-01-25T12:02:11.946Z,66.48
2019-01-25T12:03:17.236Z,66.57
2019-01-25T12:04:22.589Z,66.59
2019-01-25T12:05:27.966Z,66.51
2019-01-25T12:06:33.236Z,66.48
2019-01-25T12:07:39.685Z,66.49
2019-01-25T12:08:44.686Z,66.41
2019-01-25T12:09:49.626Z,66.29
2019-01-25T12:10:54.867Z,66.29
2019-01-25T12:11:59.844Z,66.31
2019-01-25T12:13:05.149Z,66.20
2019-01-25T12:14:10.170Z,66.01
2019-01-25T12:15:16.460Z,65.98
2019-01-25T12:16:21.880Z,66.04
2019-01-25T12:17:27.130Z,65.95
2019-01-25T12:18:32.826Z,65.82
2019-01-25T12:19:38.193Z,65.74
2019-01-25T12:20:43.706Z,65.59
2019-01-25T12:21:49.705Z,65.39
2019-01-25T12:22:55.144Z,65.12
2019-01-25T12:24:00.453Z,64.96
2019-01-25T12:25:06.209Z,64.96
2019-01-25T12:26:11.421Z,64.88
2019-01-25T12:27:16.675Z,64.86
2019-01-25T12:28:22.726Z,64.85
2019-01-25T12:29:28.013Z,64.79
2019-01-25T12:30:37.677Z,64.75
2019-01-25T12:31:44.170Z,64.69
2019-01-25T12:32:49.973Z,64.75
2019-01-25T12:33:56.623Z,64.57
2019-01-25T12:35:07.228Z,64.65
2019-01-25T12:36:08.739Z,64.73
2019-01-25T12:37:14.038Z,64.70
2019-01-25T12:38:19.438Z,64.72
2019-01-25T12:39:24.731Z,64.66
2019-01-25T12:40:30.018Z,64.68
2019-01-25T12:41:34.996Z,64.74
2019-01-25T12:42:40.180Z,64.70
2019-01-25T12:43:45.219Z,64.71
2019-01-25T12:44:50.687Z,64.70
2019-01-25T12:45:55.739Z,64.57
2019-01-25T12:47:01.036Z,64.56
2019-01-25T12:48:06.439Z,64.46
2019-01-25T12:49:11.633Z,64.45
2019-01-25T12:50:22.689Z,64.45
2019-01-25T12:51:39.921Z,64.41
2019-01-25T12:52:45.130Z,64.36
2019-01-25T12:53:50.288Z,64.41
2019-01-25T12:54:55.489Z,64.24
2019-01-25T12:56:00.920Z,64.31
2019-01-25T12:57:06.336Z,64.30
2019-01-25T12:58:11.423Z,64.36
2019-01-25T12:59:16.454Z,64.24
2019-01-25T13:00:23.539Z,64.32
2019-01-25T13:01:34.863Z,64.34
2019-01-25T13:02:37.058Z,64.41
2019-01-25T13:03:42.050Z,64.45
2019-01-25T13:04:47.155Z,64.37
2019-01-25T13:05:53.434Z,64.39
2019-01-25T13:06:58.410Z,64.32
2019-01-25T13:08:04.143Z,64.18
2019-01-25T13:09:10.925Z,64.22
2019-01-25T13:10:17.033Z,64.20
2019-01-25T13:11:22.367Z,64.06
2019-01-25T13:12:27.315Z,63.96
2019-01-25T13:13:32.748Z,63.89
2019-01-25T13:14:38.776Z,63.83
2019-01-25T13:15:44.435Z,63.81
2019-01-25T13:16:51.153Z,63.67
2019-01-25T13:17:57.243Z,63.66
2019-01-25T13:19:02.194Z,63.63
2019-01-25T13:20:13.806Z,63.63
2019-01-25T13:21:18.803Z,63.60
2019-01-25T13:22:24.029Z,63.58
2019-01-25T13:23:28.977Z,63.53
2019-01-25T13:24:34.453Z,63.42
2019-01-25T13:25:39.701Z,63.25
2019-01-25T13:26:45.010Z,63.22
2019-01-25T13:27:50.615Z,63.04
2019-01-25T13:28:56.016Z,62.97
2019-01-25T13:30:01.030Z,62.92
2019-01-25T13:31:07.202Z,62.96
2019-01-25T13:32:14.503Z,62.98
2019-01-25T13:33:19.839Z,63.00
2019-01-25T13:34:25.626Z,63.06
2019-01-25T13:35:30.964Z,63.11
2019-01-25T13:36:36.617Z,63.16
2019-01-25T13:37:41.845Z,63.20
2019-01-25T13:38:46.849Z,63.07
2019-01-25T13:39:52.133Z,62.98
2019-01-25T13:40:57.590Z,63.02
2019-01-25T13:42:02.969Z,63.06
2019-01-25T13:43:08.406Z,63.00
2019-01-25T13:44:13.354Z,62.98
2019-01-25T13:45:19.175Z,62.92
2019-01-25T13:46:24.381Z,62.96
2019-01-25T13:47:30.087Z,62.99
2019-01-25T13:48:35.381Z,62.92
2019-01-25T13:49:40.442Z,62.85
2019-01-25T13:50:45.780Z,62.81
2019-01-25T13:51:50.908Z,62.73
2019-01-25T13:52:56.403Z,62.62
2019-01-25T13:54:02.135Z,62.65
2019-01-25T13:55:09.213Z,62.67
2019-01-25T13:56:14.850Z,62.68
2019-01-25T13:57:19.916Z,62.62
2019-01-25T13:58:25.089Z,62.67
2019-01-25T13:59:30.355Z,62.63
2019-01-25T14:00:35.776Z,62.64
2019-01-25T14:01:41.574Z,62.65
2019-01-25T14:02:46.786Z,62.64
2019-01-25T14:03:52.404Z,62.59
2019-01-25T14:04:59.738Z,62.64